sensor_id;sensor_type;location;lat;lon;timestamp;pressure;altitude;pressure_sealevel;temperature;humidity
20424;BME280;10371;49.042;8.002;2023-01-08T00:00:24;99247.56;;;9.01;97.21
20424;BME280;10371;49.042;8.002;2023-01-08T00:01:25;99242.50;;;9.00;97.25
20424;BME280;10371;49.042;8.002;2023-01-08T00:02:25;99230.91;;;9.04;97.41
20424;BME280;10371;49.042;8.002;2023-01-08T00:03:25;99236.94;;;9.04;97.59
20424;BME280;10371;49.042;8.002;2023-01-08T00:04:25;99230.78;;;9.05;97.84
20424;BME280;10371;49.042;8.002;2023-01-08T00:05:26;99237.63;;;9.06;97.86
20424;BME280;10371;49.042;8.002;2023-01-08T00:06:26;99237.38;;;9.09;97.71
20424;BME280;10371;49.042;8.002;2023-01-08T00:07:26;99232.28;;;9.08;97.79
20424;BME280;10371;49.042;8.002;2023-01-08T00:08:28;99236.81;;;9.06;97.57
20424;BME280;10371;49.042;8.002;2023-01-08T00:09:28;99239.41;;;9.06;97.61
20424;BME280;10371;49.042;8.002;2023-01-08T00:10:28;99237.19;;;9.01;97.43
20424;BME280;10371;49.042;8.002;2023-01-08T00:11:29;99240.88;;;8.99;97.65
20424;BME280;10371;49.042;8.002;2023-01-08T00:12:29;99241.94;;;8.96;97.94
20424;BME280;10371;49.042;8.002;2023-01-08T00:13:29;99237.81;;;8.93;98.17
20424;BME280;10371;49.042;8.002;2023-01-08T00:14:29;99228.16;;;8.95;98.47
20424;BME280;10371;49.042;8.002;2023-01-08T00:15:30;99235.66;;;8.99;98.58
20424;BME280;10371;49.042;8.002;2023-01-08T00:16:30;99238.97;;;9.01;98.53
20424;BME280;10371;49.042;8.002;2023-01-08T00:17:31;99244.16;;;9.01;98.53
20424;BME280;10371;49.042;8.002;2023-01-08T00:18:31;99232.25;;;8.98;98.13
20424;BME280;10371;49.042;8.002;2023-01-08T00:19:32;99230.75;;;8.95;98.07
20424;BME280;10371;49.042;8.002;2023-01-08T00:20:33;99219.53;;;8.95;98.19
20424;BME280;10371;49.042;8.002;2023-01-08T00:21:33;99207.38;;;8.95;98.11
20424;BME280;10371;49.042;8.002;2023-01-08T00:22:33;99212.44;;;8.97;98.12
20424;BME280;10371;49.042;8.002;2023-01-08T00:23:34;99194.94;;;8.99;98.12
20424;BME280;10371;49.042;8.002;2023-01-08T00:24:35;99196.34;;;9.03;98.10
20424;BME280;10371;49.042;8.002;2023-01-08T00:25:35;99210.28;;;9.02;97.73
20424;BME280;10371;49.042;8.002;2023-01-08T00:26:35;99217.25;;;9.02;97.61
20424;BME280;10371;49.042;8.002;2023-01-08T00:27:36;99215.47;;;9.02;97.55
20424;BME280;10371;49.042;8.002;2023-01-08T00:28:37;99199.06;;;9.02;97.59
20424;BME280;10371;49.042;8.002;2023-01-08T00:29:37;99193.63;;;9.05;97.41
20424;BME280;10371;49.042;8.002;2023-01-08T00:30:38;99199.41;;;9.08;97.38
20424;BME280;10371;49.042;8.002;2023-01-08T00:31:38;99203.19;;;9.04;96.86
20424;BME280;10371;49.042;8.002;2023-01-08T00:32:38;99201.56;;;9.03;96.94
20424;BME280;10371;49.042;8.002;2023-01-08T00:33:39;99197.44;;;9.01;96.83
20424;BME280;10371;49.042;8.002;2023-01-08T00:34:39;99194.56;;;9.04;96.80
20424;BME280;10371;49.042;8.002;2023-01-08T00:35:40;99197.72;;;9.07;96.77
20424;BME280;10371;49.042;8.002;2023-01-08T00:36:40;99191.28;;;9.02;96.77
20424;BME280;10371;49.042;8.002;2023-01-08T00:37:40;99208.81;;;9.09;96.81
20424;BME280;10371;49.042;8.002;2023-01-08T00:38:41;99211.41;;;9.09;96.17
20424;BME280;10371;49.042;8.002;2023-01-08T00:39:41;99200.22;;;9.09;96.65
20424;BME280;10371;49.042;8.002;2023-01-08T00:40:42;99200.06;;;9.10;96.53
20424;BME280;10371;49.042;8.002;2023-01-08T00:41:42;99200.88;;;9.11;96.88
20424;BME280;10371;49.042;8.002;2023-01-08T00:42:44;99203.47;;;9.11;96.81
20424;BME280;10371;49.042;8.002;2023-01-08T00:43:44;99202.66;;;9.10;96.77
20424;BME280;10371;49.042;8.002;2023-01-08T00:44:44;99201.13;;;9.08;96.95
20424;BME280;10371;49.042;8.002;2023-01-08T00:45:45;99195.84;;;9.09;97.02
20424;BME280;10371;49.042;8.002;2023-01-08T00:46:45;99195.13;;;9.07;97.12
20424;BME280;10371;49.042;8.002;2023-01-08T00:47:45;99203.88;;;9.06;97.33
20424;BME280;10371;49.042;8.002;2023-01-08T00:48:46;99197.44;;;9.01;97.37
20424;BME280;10371;49.042;8.002;2023-01-08T00:49:46;99199.22;;;9.00;97.58
20424;BME280;10371;49.042;8.002;2023-01-08T00:50:47;99194.03;;;9.00;97.84
20424;BME280;10371;49.042;8.002;2023-01-08T00:51:48;99206.03;;;9.01;97.95
20424;BME280;10371;49.042;8.002;2023-01-08T00:52:48;99201.66;;;9.02;97.98
20424;BME280;10371;49.042;8.002;2023-01-08T00:53:48;99195.53;;;9.03;97.82
20424;BME280;10371;49.042;8.002;2023-01-08T00:54:48;99189.50;;;9.02;98.03
20424;BME280;10371;49.042;8.002;2023-01-08T00:55:49;99185.00;;;9.04;97.96
20424;BME280;10371;49.042;8.002;2023-01-08T00:56:49;99189.00;;;9.08;98.09
20424;BME280;10371;49.042;8.002;2023-01-08T00:57:49;99186.53;;;9.07;98.13
20424;BME280;10371;49.042;8.002;2023-01-08T00:58:49;99182.28;;;9.06;98.26
20424;BME280;10371;49.042;8.002;2023-01-08T00:59:50;99182.16;;;9.07;98.38
20424;BME280;10371;49.042;8.002;2023-01-08T01:00:50;99177.78;;;9.08;98.20
20424;BME280;10371;49.042;8.002;2023-01-08T01:01:50;99171.06;;;9.05;98.08
20424;BME280;10371;49.042;8.002;2023-01-08T01:02:53;99180.63;;;9.05;98.21
20424;BME280;10371;49.042;8.002;2023-01-08T01:03:53;99183.38;;;9.03;98.28
20424;BME280;10371;49.042;8.002;2023-01-08T01:04:53;99191.44;;;9.00;98.27
20424;BME280;10371;49.042;8.002;2023-01-08T01:06:01;99193.44;;;8.97;98.46
20424;BME280;10371;49.042;8.002;2023-01-08T01:07:03;99193.31;;;8.98;98.59
20424;BME280;10371;49.042;8.002;2023-01-08T01:08:03;99194.28;;;8.97;98.88
20424;BME280;10371;49.042;8.002;2023-01-08T01:09:04;99203.25;;;8.93;99.14
20424;BME280;10371;49.042;8.002;2023-01-08T01:10:04;99201.75;;;8.90;99.29
20424;BME280;10371;49.042;8.002;2023-01-08T01:11:07;99201.03;;;8.88;99.44
20424;BME280;10371;49.042;8.002;2023-01-08T01:12:07;99200.22;;;8.88;99.82
20424;BME280;10371;49.042;8.002;2023-01-08T01:13:07;99197.38;;;8.91;99.93
20424;BME280;10371;49.042;8.002;2023-01-08T01:14:08;99200.81;;;8.91;100.00
20424;BME280;10371;49.042;8.002;2023-01-08T01:15:11;99194.78;;;8.91;100.00
20424;BME280;10371;49.042;8.002;2023-01-08T01:16:12;99182.63;;;8.91;100.00
20424;BME280;10371;49.042;8.002;2023-01-08T01:17:12;99186.88;;;8.92;100.00
20424;BME280;10371;49.042;8.002;2023-01-08T01:18:13;99186.59;;;8.95;100.00
20424;BME280;10371;49.042;8.002;2023-01-08T01:19:14;99181.41;;;8.95;100.00
20424;BME280;10371;49.042;8.002;2023-01-08T01:20:15;99178.00;;;8.95;100.00
20424;BME280;10371;49.042;8.002;2023-01-08T01:21:26;99187.31;;;8.98;100.00
20424;BME280;10371;49.042;8.002;2023-01-08T01:22:26;99187.16;;;8.99;100.00
20424;BME280;10371;49.042;8.002;2023-01-08T01:23:27;99183.19;;;8.95;100.00
20424;BME280;10371;49.042;8.002;2023-01-08T01:24:28;99187.44;;;8.96;100.00
20424;BME280;10371;49.042;8.002;2023-01-08T01:25:28;99175.25;;;8.97;100.00
20424;BME280;10371;49.042;8.002;2023-01-08T01:26:29;99182.13;;;8.98;100.00
20424;BME280;10371;49.042;8.002;2023-01-08T01:27:30;99180.44;;;8.97;100.00
20424;BME280;10371;49.042;8.002;2023-01-08T01:28:30;99180.44;;;8.97;100.00
20424;BME280;10371;49.042;8.002;2023-01-08T01:29:30;99182.13;;;8.98;100.00
20424;BME280;10371;49.042;8.002;2023-01-08T01:30:31;99180.34;;;8.98;100.00
20424;BME280;10371;49.042;8.002;2023-01-08T01:31:31;99185.91;;;8.93;100.00
20424;BME280;10371;49.042;8.002;2023-01-08T01:32:32;99173.88;;;8.92;100.00
20424;BME280;10371;49.042;8.002;2023-01-08T01:33:32;99172.13;;;8.93;100.00
20424;BME280;10371;49.042;8.002;2023-01-08T01:34:33;99175.53;;;8.93;100.00
20424;BME280;10371;49.042;8.002;2023-01-08T01:35:34;99170.47;;;8.92;100.00
20424;BME280;10371;49.042;8.002;2023-01-08T01:36:34;99176.34;;;8.94;100.00
20424;BME280;10371;49.042;8.002;2023-01-08T01:37:34;99172.00;;;8.94;100.00
20424;BME280;10371;49.042;8.002;2023-01-08T01:38:35;99172.66;;;8.97;100.00
20424;BME280;10371;49.042;8.002;2023-01-08T01:39:35;99179.63;;;8.96;100.00
20424;BME280;10371;49.042;8.002;2023-01-08T01:40:41;99172.81;;;8.95;100.00
20424;BME280;10371;49.042;8.002;2023-01-08T01:41:45;99175.53;;;8.93;100.00
20424;BME280;10371;49.042;8.002;2023-01-08T01:42:45;99174.97;;;8.90;100.00
20424;BME280;10371;49.042;8.002;2023-01-08T01:43:45;99177.81;;;8.87;100.00
20424;BME280;10371;49.042;8.002;2023-01-08T01:44:46;99176.03;;;8.87;100.00
20424;BME280;10371;49.042;8.002;2023-01-08T01:45:46;99177.69;;;8.88;100.00
20424;BME280;10371;49.042;8.002;2023-01-08T01:46:48;99182.06;;;8.88;100.00
20424;BME280;10371;49.042;8.002;2023-01-08T01:48:01;99175.94;;;8.89;100.00
20424;BME280;10371;49.042;8.002;2023-01-08T01:49:10;99171.94;;;8.85;100.00
20424;BME280;10371;49.042;8.002;2023-01-08T01:50:18;99176.75;;;8.89;100.00
20424;BME280;10371;49.042;8.002;2023-01-08T01:51:19;99177.69;;;8.88;100.00
20424;BME280;10371;49.042;8.002;2023-01-08T01:52:20;99172.50;;;8.88;100.00
20424;BME280;10371;49.042;8.002;2023-01-08T01:53:26;99173.44;;;8.87;100.00
20424;BME280;10371;49.042;8.002;2023-01-08T01:54:28;99169.06;;;8.88;100.00
20424;BME280;10371;49.042;8.002;2023-01-08T01:55:30;99171.56;;;8.89;100.00
20424;BME280;10371;49.042;8.002;2023-01-08T01:56:31;99165.41;;;8.90;100.00
20424;BME280;10371;49.042;8.002;2023-01-08T01:57:32;99159.50;;;8.88;100.00
20424;BME280;10371;49.042;8.002;2023-01-08T01:58:33;99163.06;;;8.87;100.00
20424;BME280;10371;49.042;8.002;2023-01-08T01:59:33;99155.28;;;8.87;100.00
20424;BME280;10371;49.042;8.002;2023-01-08T02:00:34;99163.78;;;8.89;100.00
20424;BME280;10371;49.042;8.002;2023-01-08T02:01:35;99162.94;;;8.89;100.00
20424;BME280;10371;49.042;8.002;2023-01-08T02:02:35;99161.19;;;8.89;100.00
20424;BME280;10371;49.042;8.002;2023-01-08T02:03:37;99160.09;;;8.92;100.00
20424;BME280;10371;49.042;8.002;2023-01-08T02:04:38;99159.13;;;8.93;100.00
20424;BME280;10371;49.042;8.002;2023-01-08T02:05:53;99157.19;;;8.85;100.00
20424;BME280;10371;49.042;8.002;2023-01-08T02:08:10;99162.38;;;8.85;100.00
20424;BME280;10371;49.042;8.002;2023-01-08T02:09:36;99159.09;;;8.83;100.00
20424;BME280;10371;49.042;8.002;2023-01-08T02:11:10;99157.16;;;8.76;100.00
20424;BME280;10371;49.042;8.002;2023-01-08T02:12:18;99152.47;;;8.69;100.00
20424;BME280;10371;49.042;8.002;2023-01-08T02:13:31;99151.50;;;8.70;100.00
20424;BME280;10371;49.042;8.002;2023-01-08T02:17:06;99152.22;;;8.72;100.00
20424;BME280;10371;49.042;8.002;2023-01-08T02:18:14;99150.00;;;8.68;100.00
20424;BME280;10371;49.042;8.002;2023-01-08T02:19:29;99159.41;;;8.69;100.00
20424;BME280;10371;49.042;8.002;2023-01-08T02:21:05;99150.00;;;8.68;100.00
20424;BME280;10371;49.042;8.002;2023-01-08T02:23:29;99140.31;;;8.70;100.00
20424;BME280;10371;49.042;8.002;2023-01-08T02:25:01;99136.06;;;8.69;100.00
20424;BME280;10371;49.042;8.002;2023-01-08T02:26:18;99130.03;;;8.68;100.00
20424;BME280;10371;49.042;8.002;2023-01-08T02:27:24;99130.19;;;8.67;100.00
20424;BME280;10371;49.042;8.002;2023-01-08T02:28:26;99123.22;;;8.67;100.00
20424;BME280;10371;49.042;8.002;2023-01-08T02:29:29;99119.66;;;8.68;100.00
20424;BME280;10371;49.042;8.002;2023-01-08T02:30:31;99115.06;;;8.72;100.00
20424;BME280;10371;49.042;8.002;2023-01-08T02:31:32;99123.53;;;8.74;100.00
20424;BME280;10371;49.042;8.002;2023-01-08T02:32:39;99122.59;;;8.75;100.00
20424;BME280;10371;49.042;8.002;2023-01-08T02:33:40;99125.19;;;8.75;100.00
20424;BME280;10371;49.042;8.002;2023-01-08T02:34:41;99130.94;;;8.79;100.00
20424;BME280;10371;49.042;8.002;2023-01-08T02:35:49;99126.56;;;8.79;100.00
20424;BME280;10371;49.042;8.002;2023-01-08T02:36:53;99122.44;;;8.77;100.00
20424;BME280;10371;49.042;8.002;2023-01-08T02:37:53;99129.28;;;8.78;100.00
20424;BME280;10371;49.042;8.002;2023-01-08T02:39:08;99128.19;;;8.80;100.00
20424;BME280;10371;49.042;8.002;2023-01-08T02:40:22;99117.13;;;8.78;100.00
20424;BME280;10371;49.042;8.002;2023-01-08T02:41:35;99114.66;;;8.77;100.00
20424;BME280;10371;49.042;8.002;2023-01-08T02:44:02;99115.72;;;8.74;100.00
20424;BME280;10371;49.042;8.002;2023-01-08T02:45:20;99110.44;;;8.76;100.00
20424;BME280;10371;49.042;8.002;2023-01-08T02:46:29;99105.75;;;8.69;100.00
20424;BME280;10371;49.042;8.002;2023-01-08T02:47:44;99101.38;;;8.70;100.00
20424;BME280;10371;49.042;8.002;2023-01-08T02:48:48;99100.56;;;8.69;100.00
20424;BME280;10371;49.042;8.002;2023-01-08T02:50:00;99104.00;;;8.70;100.00
20424;BME280;10371;49.042;8.002;2023-01-08T02:51:26;99096.75;;;8.73;100.00
20424;BME280;10371;49.042;8.002;2023-01-08T02:52:30;99089.34;;;8.69;100.00
20424;BME280;10371;49.042;8.002;2023-01-08T02:53:35;99087.59;;;8.69;100.00
20424;BME280;10371;49.042;8.002;2023-01-08T02:54:37;99084.41;;;8.66;100.00
20424;BME280;10371;49.042;8.002;2023-01-08T02:55:41;99082.53;;;8.68;100.00
20424;BME280;10371;49.042;8.002;2023-01-08T02:56:45;99084.31;;;8.67;100.00
20424;BME280;10371;49.042;8.002;2023-01-08T02:57:49;99079.22;;;8.66;100.00
20424;BME280;10371;49.042;8.002;2023-01-08T02:58:51;99073.78;;;8.69;100.00
20424;BME280;10371;49.042;8.002;2023-01-08T02:59:53;99068.59;;;8.69;100.00
20424;BME280;10371;49.042;8.002;2023-01-08T03:00:55;99081.88;;;8.76;100.00
20424;BME280;10371;49.042;8.002;2023-01-08T03:01:56;99074.91;;;8.76;100.00
20424;BME280;10371;49.042;8.002;2023-01-08T03:03:04;99072.31;;;8.76;100.00
20424;BME280;10371;49.042;8.002;2023-01-08T03:04:18;99078.88;;;8.80;100.00
20424;BME280;10371;49.042;8.002;2023-01-08T03:05:23;99082.31;;;8.81;100.00
20424;BME280;10371;49.042;8.002;2023-01-08T03:06:25;99079.72;;;8.81;100.00
20424;BME280;10371;49.042;8.002;2023-01-08T03:07:26;99075.34;;;8.81;100.00
20424;BME280;10371;49.042;8.002;2023-01-08T03:08:27;99075.34;;;8.81;100.00
20424;BME280;10371;49.042;8.002;2023-01-08T03:09:27;99081.09;;;8.85;100.00
20424;BME280;10371;49.042;8.002;2023-01-08T03:10:29;99065.66;;;8.83;100.00
20424;BME280;10371;49.042;8.002;2023-01-08T03:11:36;99070.00;;;8.83;100.00
20424;BME280;10371;49.042;8.002;2023-01-08T03:12:54;99078.75;;;8.82;100.00
20424;BME280;10371;49.042;8.002;2023-01-08T03:14:00;99078.66;;;8.83;100.00
20424;BME280;10371;49.042;8.002;2023-01-08T03:15:08;99072.75;;;8.81;100.00
20424;BME280;10371;49.042;8.002;2023-01-08T03:16:19;99077.13;;;8.81;100.00
20424;BME280;10371;49.042;8.002;2023-01-08T03:17:25;99068.66;;;8.79;100.00
20424;BME280;10371;49.042;8.002;2023-01-08T03:18:32;99070.28;;;8.80;100.00
20424;BME280;10371;49.042;8.002;2023-01-08T03:19:39;99073.69;;;8.80;100.00
20424;BME280;10371;49.042;8.002;2023-01-08T03:20:41;99065.78;;;8.82;100.00
20424;BME280;10371;49.042;8.002;2023-01-08T03:21:44;99066.59;;;8.82;100.00
20424;BME280;10371;49.042;8.002;2023-01-08T03:22:49;99064.81;;;8.83;100.00
20424;BME280;10371;49.042;8.002;2023-01-08T03:23:51;99067.41;;;8.83;100.00
20424;BME280;10371;49.042;8.002;2023-01-08T03:24:52;99067.31;;;8.84;100.00
20424;BME280;10371;49.042;8.002;2023-01-08T03:25:53;99060.47;;;8.83;100.00
20424;BME280;10371;49.042;8.002;2023-01-08T03:26:56;99058.81;;;8.82;100.00
20424;BME280;10371;49.042;8.002;2023-01-08T03:28:01;99063.19;;;8.82;100.00
20424;BME280;10371;49.042;8.002;2023-01-08T03:29:03;99062.22;;;8.83;100.00
20424;BME280;10371;49.042;8.002;2023-01-08T03:30:06;99053.63;;;8.82;100.00
20424;BME280;10371;49.042;8.002;2023-01-08T03:31:08;99056.09;;;8.84;100.00
20424;BME280;10371;49.042;8.002;2023-01-08T03:32:12;99052.53;;;8.85;100.00
20424;BME280;10371;49.042;8.002;2023-01-08T03:33:15;99054.44;;;8.83;100.00
20424;BME280;10371;49.042;8.002;2023-01-08T03:34:17;99056.22;;;8.82;100.00
20424;BME280;10371;49.042;8.002;2023-01-08T03:35:21;99051.19;;;8.81;100.00
20424;BME280;10371;49.042;8.002;2023-01-08T03:36:24;99056.38;;;8.81;100.00
20424;BME280;10371;49.042;8.002;2023-01-08T03:37:29;99060.72;;;8.80;100.00
20424;BME280;10371;49.042;8.002;2023-01-08T03:38:44;99054.72;;;8.80;100.00
20424;BME280;10371;49.042;8.002;2023-01-08T03:40:03;99058.13;;;8.80;100.00
20424;BME280;10371;49.042;8.002;2023-01-08T03:41:09;99050.22;;;8.82;100.00
20424;BME280;10371;49.042;8.002;2023-01-08T03:42:12;99053.88;;;8.79;100.00
20424;BME280;10371;49.042;8.002;2023-01-08T03:43:14;99052.25;;;8.78;100.00
20424;BME280;10371;49.042;8.002;2023-01-08T03:44:15;99050.59;;;8.77;100.00
20424;BME280;10371;49.042;8.002;2023-01-08T03:45:15;99055.78;;;8.77;100.00
20424;BME280;10371;49.042;8.002;2023-01-08T03:46:23;99044.16;;;8.71;100.00
20424;BME280;10371;49.042;8.002;2023-01-08T03:47:29;99055.13;;;8.75;100.00
20424;BME280;10371;49.042;8.002;2023-01-08T03:48:32;99057.72;;;8.75;100.00
20424;BME280;10371;49.042;8.002;2023-01-08T03:49:34;99064.53;;;8.76;100.00
20424;BME280;10371;49.042;8.002;2023-01-08T03:50:35;99068.22;;;8.73;100.00
20424;BME280;10371;49.042;8.002;2023-01-08T03:51:43;99061.25;;;8.74;100.00
20424;BME280;10371;49.042;8.002;2023-01-08T03:52:43;99057.72;;;8.75;100.00
20424;BME280;10371;49.042;8.002;2023-01-08T03:53:44;99059.34;;;8.76;100.00
20424;BME280;10371;49.042;8.002;2023-01-08T03:54:46;99058.53;;;8.76;100.00
20424;BME280;10371;49.042;8.002;2023-01-08T03:55:46;99068.22;;;8.73;100.00
20424;BME280;10371;49.042;8.002;2023-01-08T03:56:46;99070.53;;;8.77;100.00
20424;BME280;10371;49.042;8.002;2023-01-08T03:57:47;99067.25;;;8.75;100.00
20424;BME280;10371;49.042;8.002;2023-01-08T03:58:47;99062.22;;;8.73;100.00
20424;BME280;10371;49.042;8.002;2023-01-08T03:59:47;99067.41;;;8.73;100.00
20424;BME280;10371;49.042;8.002;2023-01-08T04:00:47;99060.56;;;8.72;100.00
20424;BME280;10371;49.042;8.002;2023-01-08T04:01:48;99051.94;;;8.71;100.00
20424;BME280;10371;49.042;8.002;2023-01-08T04:02:48;99050.31;;;8.70;100.00
20424;BME280;10371;49.042;8.002;2023-01-08T04:03:48;99054.69;;;8.70;100.00
20424;BME280;10371;49.042;8.002;2023-01-08T04:04:48;99060.81;;;8.69;100.00
20424;BME280;10371;49.042;8.002;2023-01-08T04:05:49;99051.41;;;8.68;100.00
20424;BME280;10371;49.042;8.002;2023-01-08T04:06:51;99054.94;;;8.67;100.00
20424;BME280;10371;49.042;8.002;2023-01-08T04:07:54;99056.59;;;8.68;100.00
20424;BME280;10371;49.042;8.002;2023-01-08T04:08:54;99047.84;;;8.69;100.00
20424;BME280;10371;49.042;8.002;2023-01-08T04:09:54;99058.22;;;8.69;100.00
20424;BME280;10371;49.042;8.002;2023-01-08T04:10:55;99054.69;;;8.70;100.00
20424;BME280;10371;49.042;8.002;2023-01-08T04:11:55;99061.50;;;8.71;100.00
20424;BME280;10371;49.042;8.002;2023-01-08T04:12:55;99059.88;;;8.70;100.00
20424;BME280;10371;49.042;8.002;2023-01-08T04:13:55;99056.59;;;8.68;100.00
20424;BME280;10371;49.042;8.002;2023-01-08T04:14:56;99057.66;;;8.65;100.00
20424;BME280;10371;49.042;8.002;2023-01-08T04:15:56;99054.25;;;8.65;100.00
20424;BME280;10371;49.042;8.002;2023-01-08T04:16:57;99054.25;;;8.65;100.00
20424;BME280;10371;49.042;8.002;2023-01-08T04:17:57;99062.03;;;8.65;100.00
20424;BME280;10371;49.042;8.002;2023-01-08T04:18:57;99065.59;;;8.64;100.00
20424;BME280;10371;49.042;8.002;2023-01-08T04:19:57;99063.22;;;8.61;100.00
20424;BME280;10371;49.042;8.002;2023-01-08T04:20:58;99060.78;;;8.59;100.00
20424;BME280;10371;49.042;8.002;2023-01-08T04:21:58;99053.38;;;8.55;100.00
20424;BME280;10371;49.042;8.002;2023-01-08T04:22:58;99066.22;;;8.56;100.00
20424;BME280;10371;49.042;8.002;2023-01-08T04:23:59;99065.28;;;8.57;100.00
20424;BME280;10371;49.042;8.002;2023-01-08T04:24:59;99066.09;;;8.58;100.00
20424;BME280;10371;49.042;8.002;2023-01-08T04:26:03;99058.19;;;8.59;100.00
20424;BME280;10371;49.042;8.002;2023-01-08T04:27:04;99064.44;;;8.57;100.00
20424;BME280;10371;49.042;8.002;2023-01-08T04:28:04;99057.75;;;8.54;100.00
20424;BME280;10371;49.042;8.002;2023-01-08T04:29:05;99063.09;;;8.53;100.00
20424;BME280;10371;49.042;8.002;2023-01-08T04:30:05;99052.94;;;8.49;100.00
20424;BME280;10371;49.042;8.002;2023-01-08T04:31:08;99053.91;;;8.48;100.00
20424;BME280;10371;49.042;8.002;2023-01-08T04:32:08;99061.84;;;8.47;100.00
20424;BME280;10371;49.042;8.002;2023-01-08T04:33:08;99060.31;;;8.44;100.00
20424;BME280;10371;49.042;8.002;2023-01-08T04:34:09;99063.84;;;8.43;100.00
20424;BME280;10371;49.042;8.002;2023-01-08T04:35:09;99057.13;;;8.41;100.00
20424;BME280;10371;49.042;8.002;2023-01-08T04:36:09;99061.66;;;8.39;100.00
20424;BME280;10371;49.042;8.002;2023-01-08T04:37:10;99063.63;;;8.35;100.00
20424;BME280;10371;49.042;8.002;2023-01-08T04:38:10;99068.94;;;8.34;100.00
20424;BME280;10371;49.042;8.002;2023-01-08T04:39:10;99067.19;;;8.34;100.00
20424;BME280;10371;49.042;8.002;2023-01-08T04:40:11;99068.94;;;8.34;100.00
20424;BME280;10371;49.042;8.002;2023-01-08T04:41:11;99065.41;;;8.35;100.00
20424;BME280;10371;49.042;8.002;2023-01-08T04:42:12;99069.78;;;8.34;100.00
20424;BME280;10371;49.042;8.002;2023-01-08T04:43:12;99066.47;;;8.32;100.00
20424;BME280;10371;49.042;8.002;2023-01-08T04:44:12;99062.81;;;8.35;100.00
20424;BME280;10371;49.042;8.002;2023-01-08T04:45:13;99063.19;;;8.30;100.00
20424;BME280;10371;49.042;8.002;2023-01-08T04:46:13;99065.66;;;8.32;100.00
20424;BME280;10371;49.042;8.002;2023-01-08T04:47:13;99056.91;;;8.33;100.00
20424;BME280;10371;49.042;8.002;2023-01-08T04:48:14;99068.38;;;8.30;100.00
20424;BME280;10371;49.042;8.002;2023-01-08T04:49:14;99064.84;;;8.31;100.00
20424;BME280;10371;49.042;8.002;2023-01-08T04:50:14;99068.38;;;8.30;100.00
20424;BME280;10371;49.042;8.002;2023-01-08T04:51:15;99071.91;;;8.29;100.00
20424;BME280;10371;49.042;8.002;2023-01-08T04:52:15;99071.09;;;8.28;100.00
20424;BME280;10371;49.042;8.002;2023-01-08T04:53:15;99072.88;;;8.28;100.00
20424;BME280;10371;49.042;8.002;2023-01-08T04:54:16;99076.41;;;8.27;100.00
20424;BME280;10371;49.042;8.002;2023-01-08T04:55:16;99083.38;;;8.26;100.00
20424;BME280;10371;49.042;8.002;2023-01-08T04:56:16;99076.66;;;8.24;100.00
20424;BME280;10371;49.042;8.002;2023-01-08T04:57:17;99077.38;;;8.26;100.00
20424;BME280;10371;49.042;8.002;2023-01-08T04:58:17;99073.81;;;8.27;100.00
20424;BME280;10371;49.042;8.002;2023-01-08T04:59:17;99073.81;;;8.27;100.00
20424;BME280;10371;49.042;8.002;2023-01-08T05:00:18;99072.19;;;8.26;100.00
20424;BME280;10371;49.042;8.002;2023-01-08T05:01:23;99070.28;;;8.28;100.00
20424;BME280;10371;49.042;8.002;2023-01-08T05:02:24;99062.50;;;8.28;100.00
20424;BME280;10371;49.042;8.002;2023-01-08T05:03:24;99061.53;;;8.29;100.00
20424;BME280;10371;49.042;8.002;2023-01-08T05:04:24;99059.09;;;8.27;100.00
20424;BME280;10371;49.042;8.002;2023-01-08T05:05:25;99064.28;;;8.27;100.00
20424;BME280;10371;49.042;8.002;2023-01-08T05:06:27;99061.53;;;8.29;100.00
20424;BME280;10371;49.042;8.002;2023-01-08T05:07:27;99061.53;;;8.29;100.00
20424;BME280;10371;49.042;8.002;2023-01-08T05:08:28;99057.19;;;8.29;100.00
20424;BME280;10371;49.042;8.002;2023-01-08T05:09:28;99055.81;;;8.25;100.00
20424;BME280;10371;49.042;8.002;2023-01-08T05:10:28;99061.09;;;8.24;100.00
20424;BME280;10371;49.042;8.002;2023-01-08T05:11:28;99060.19;;;8.25;100.00
20424;BME280;10371;49.042;8.002;2023-01-08T05:12:29;99047.47;;;8.22;100.00
20424;BME280;10371;49.042;8.002;2023-01-08T05:13:29;99050.06;;;8.22;100.00
20424;BME280;10371;49.042;8.002;2023-01-08T05:14:29;99052.41;;;8.25;100.00
20424;BME280;10371;49.042;8.002;2023-01-08T05:15:30;99052.41;;;8.25;100.00
20424;BME280;10371;49.042;8.002;2023-01-08T05:16:30;99044.72;;;8.23;100.00
20424;BME280;10371;49.042;8.002;2023-01-08T05:17:31;99044.88;;;8.22;100.00
20424;BME280;10371;49.042;8.002;2023-01-08T05:18:31;99042.13;;;8.23;100.00
20424;BME280;10371;49.042;8.002;2023-01-08T05:19:32;99051.56;;;8.24;100.00
20424;BME280;10371;49.042;8.002;2023-01-08T05:20:32;99048.28;;;8.22;100.00
20424;BME280;10371;49.042;8.002;2023-01-08T05:21:32;99043.09;;;8.22;100.00
20424;BME280;10371;49.042;8.002;2023-01-08T05:22:33;99043.47;;;8.18;100.00
20424;BME280;10371;49.042;8.002;2023-01-08T05:23:33;99049.63;;;8.17;100.00
20424;BME280;10371;49.042;8.002;2023-01-08T05:24:34;99040.19;;;8.16;100.00
20424;BME280;10371;49.042;8.002;2023-01-08T05:25:34;99040.75;;;8.19;100.00
20424;BME280;10371;49.042;8.002;2023-01-08T05:26:34;99045.09;;;8.19;100.00
20424;BME280;10371;49.042;8.002;2023-01-08T05:27:35;99039.91;;;8.19;100.00
20424;BME280;10371;49.042;8.002;2023-01-08T05:28:35;99039.09;;;8.18;100.00
20424;BME280;10371;49.042;8.002;2023-01-08T05:29:35;99037.31;;;8.19;100.00
20424;BME280;10371;49.042;8.002;2023-01-08T05:30:36;99045.38;;;8.16;100.00
20424;BME280;10371;49.042;8.002;2023-01-08T05:31:36;99042.09;;;8.14;100.00
20424;BME280;10371;49.042;8.002;2023-01-08T05:32:36;99042.91;;;8.14;100.00
20424;BME280;10371;49.042;8.002;2023-01-08T05:33:37;99044.53;;;8.15;100.00
20424;BME280;10371;49.042;8.002;2023-01-08T05:34:38;99040.44;;;8.13;100.00
20424;BME280;10371;49.042;8.002;2023-01-08T05:35:38;99036.91;;;8.14;100.00
20424;BME280;10371;49.042;8.002;2023-01-08T05:36:39;99038.53;;;8.15;100.00
20424;BME280;10371;49.042;8.002;2023-01-08T05:37:39;99038.53;;;8.15;100.00
20424;BME280;10371;49.042;8.002;2023-01-08T05:38:40;99035.25;;;8.13;100.00